createdAt,value
2019-03-31T00:00:06.852Z,102072.47
2019-03-31T00:02:36.032Z,102071.65
2019-03-31T00:05:05.568Z,102072.26
2019-03-31T00:07:34.747Z,102072.26
2019-03-31T00:10:06.676Z,102068.74
2019-03-31T00:12:35.957Z,102068.74
2019-03-31T00:15:07.087Z,102066.36
2019-03-31T00:17:36.265Z,102071.11
2019-03-31T00:20:07.194Z,102071.11
2019-03-31T00:22:36.387Z,102069.63
2019-03-31T00:25:06.438Z,102062.42
2019-03-31T00:27:35.631Z,102071.41
2019-03-31T00:30:06.032Z,102077.36
2019-03-31T00:32:35.264Z,102077.36
2019-03-31T00:35:04.972Z,102072.91
2019-03-31T00:37:34.181Z,102076.02
2019-03-31T00:40:04.538Z,102076.02
2019-03-31T00:42:33.727Z,102081.78
2019-03-31T00:45:02.916Z,102071.15
2019-03-31T00:47:32.106Z,102081.16
2019-03-31T00:50:01.316Z,102073.66
2019-03-31T00:52:30.512Z,102073.66
2019-03-31T00:54:59.696Z,102076.31
2019-03-31T00:57:28.882Z,102076.31
2019-03-31T00:59:58.074Z,102062.13
2019-03-31T01:02:31.602Z,102062.13
2019-03-31T01:05:01.042Z,102063.70
2019-03-31T01:07:30.600Z,102063.70
2019-03-31T01:09:59.971Z,102069.06
2019-03-31T01:12:29.487Z,102069.06
2019-03-31T01:14:58.661Z,102072.77
2019-03-31T01:17:28.115Z,102078.95
2019-03-31T01:19:58.957Z,102078.99
2019-03-31T01:22:28.151Z,102082.19
2019-03-31T01:24:57.340Z,102082.19
2019-03-31T01:27:26.717Z,102080.13
2019-03-31T01:29:55.976Z,102081.23
2019-03-31T01:32:25.266Z,102087.42
2019-03-31T01:34:54.519Z,102087.42
2019-03-31T01:37:23.700Z,102094.67
2019-03-31T01:39:53.467Z,102089.55
2019-03-31T01:42:22.662Z,102084.63
2019-03-31T01:44:51.866Z,102084.63
2019-03-31T01:47:21.063Z,102087.15
2019-03-31T01:49:50.317Z,102089.50
2019-03-31T01:52:19.596Z,102096.16
2019-03-31T01:54:48.802Z,102093.20
2019-03-31T01:57:18.034Z,102094.81
2019-03-31T01:59:47.224Z,102099.06
2019-03-31T02:02:18.058Z,102094.89
2019-03-31T02:04:47.252Z,102095.05
2019-03-31T02:07:16.442Z,102091.84
2019-03-31T02:09:45.636Z,102100.91
2019-03-31T02:12:14.880Z,102099.57
2019-03-31T02:14:44.095Z,102099.72
2019-03-31T02:17:13.281Z,102099.72
2019-03-31T02:19:42.498Z,102102.08
2019-03-31T02:22:11.770Z,102101.83
2019-03-31T02:24:40.907Z,102101.20
2019-03-31T02:27:10.143Z,102102.80
2019-03-31T02:29:39.339Z,102098.31
2019-03-31T02:32:22.527Z,102100.91
2019-03-31T02:34:39.358Z,102102.03
2019-03-31T02:37:08.545Z,102098.39
2019-03-31T02:39:39.253Z,102105.91
2019-03-31T02:42:08.462Z,102101.31
2019-03-31T02:44:42.011Z,102111.77
2019-03-31T02:47:11.277Z,102104.78
2019-03-31T02:49:40.467Z,102108.27
2019-03-31T02:52:09.649Z,102111.63
2019-03-31T02:54:38.846Z,102108.98
2019-03-31T02:57:08.615Z,102117.56
2019-03-31T02:59:38.362Z,102123.70
2019-03-31T03:02:08.972Z,102119.69
2019-03-31T03:04:41.005Z,102126.84
2019-03-31T03:07:12.948Z,102129.81
2019-03-31T03:09:48.310Z,102122.72
2019-03-31T03:12:22.580Z,102120.25
2019-03-31T03:14:54.432Z,102123.14
2019-03-31T03:17:23.610Z,102129.59
2019-03-31T03:19:52.814Z,102121.23
2019-03-31T03:22:21.997Z,102130.59
2019-03-31T03:24:51.254Z,102131.36
2019-03-31T03:27:20.446Z,102135.48
2019-03-31T03:29:49.624Z,102135.51
2019-03-31T03:32:18.805Z,102139.82
2019-03-31T03:34:48.003Z,102139.16
2019-03-31T03:37:17.198Z,102145.67
2019-03-31T03:39:46.393Z,102139.99
2019-03-31T03:42:15.596Z,102149.05
2019-03-31T03:44:44.772Z,102156.22
2019-03-31T03:47:13.991Z,102148.81
2019-03-31T03:49:43.173Z,102154.61
2019-03-31T03:52:12.394Z,102159.69
2019-03-31T03:54:41.612Z,102152.25
2019-03-31T03:57:10.848Z,102154.20
2019-03-31T03:59:40.096Z,102153.13
2019-03-31T04:02:09.330Z,102156.38
2019-03-31T04:04:38.464Z,102159.73
2019-03-31T04:07:07.667Z,102160.62
2019-03-31T04:09:36.820Z,102158.45
2019-03-31T04:12:06.009Z,102160.83
2019-03-31T04:14:35.198Z,102157.45
2019-03-31T04:17:04.399Z,102158.22
2019-03-31T04:19:33.573Z,102156.67
2019-03-31T04:22:02.769Z,102164.13
2019-03-31T04:24:33.599Z,102168.08
2019-03-31T04:27:02.794Z,102168.08
2019-03-31T04:29:31.972Z,102172.13
2019-03-31T04:32:01.187Z,102176.53
2019-03-31T04:34:30.383Z,102179.16
2019-03-31T04:36:59.752Z,102172.34
2019-03-31T04:39:28.951Z,102180.00
2019-03-31T04:41:58.142Z,102184.56
2019-03-31T04:44:27.349Z,102176.61
2019-03-31T04:46:56.547Z,102179.78
2019-03-31T04:49:25.756Z,102179.91
2019-03-31T04:51:54.928Z,102187.89
2019-03-31T04:54:24.118Z,102191.75
2019-03-31T04:56:53.319Z,102195.02
2019-03-31T04:59:22.502Z,102196.05
2019-03-31T05:01:51.720Z,102195.85
2019-03-31T05:04:20.913Z,102196.37
2019-03-31T05:06:50.114Z,102205.06
2019-03-31T05:09:19.624Z,102204.22
2019-03-31T05:11:48.804Z,102206.52
2019-03-31T05:14:18.016Z,102222.27
2019-03-31T05:16:47.200Z,102222.80
2019-03-31T05:19:16.387Z,102230.70
2019-03-31T05:21:45.565Z,102230.61
2019-03-31T05:24:14.754Z,102237.39
2019-03-31T05:26:43.957Z,102242.23
2019-03-31T05:29:13.137Z,102252.73
2019-03-31T05:31:42.331Z,102250.84
2019-03-31T05:34:18.849Z,102263.66
2019-03-31T05:36:42.401Z,102260.52
2019-03-31T05:39:11.573Z,102262.96
2019-03-31T05:41:40.752Z,102262.91
2019-03-31T05:44:09.955Z,102267.11
2019-03-31T05:46:39.219Z,102265.63
2019-03-31T05:49:08.390Z,102265.98
2019-03-31T05:51:37.584Z,102266.38
2019-03-31T05:54:06.784Z,102263.81
2019-03-31T05:56:36.005Z,102278.52
2019-03-31T05:59:05.259Z,102268.75
2019-03-31T06:01:34.431Z,102269.98
2019-03-31T06:04:03.611Z,102275.09
2019-03-31T06:06:32.797Z,102280.99
2019-03-31T06:09:02.002Z,102271.99
2019-03-31T06:11:31.178Z,102286.33
2019-03-31T06:14:00.383Z,102280.17
2019-03-31T06:16:29.607Z,102277.63
2019-03-31T06:18:58.803Z,102277.94
2019-03-31T06:21:29.278Z,102278.47
2019-03-31T06:23:58.699Z,102275.44
2019-03-31T06:26:27.896Z,102273.18
2019-03-31T06:28:57.097Z,102281.73
2019-03-31T06:31:26.277Z,102291.19
2019-03-31T06:33:55.471Z,102283.86
2019-03-31T06:36:24.675Z,102286.53
2019-03-31T06:38:53.894Z,102286.98
2019-03-31T06:41:23.084Z,102294.66
2019-03-31T06:43:52.263Z,102299.12
2019-03-31T06:46:21.477Z,102304.92
2019-03-31T06:48:50.666Z,102302.20
2019-03-31T06:51:19.865Z,102307.23
2019-03-31T06:53:49.034Z,102305.41
2019-03-31T06:56:18.206Z,102311.28
2019-03-31T06:58:47.397Z,102319.30
2019-03-31T07:01:16.583Z,102326.30
2019-03-31T07:03:45.758Z,102326.25
2019-03-31T07:06:16.759Z,102326.78
2019-03-31T07:08:45.873Z,102338.63
2019-03-31T07:11:15.100Z,102331.83
2019-03-31T07:13:44.289Z,102334.89
2019-03-31T07:16:13.473Z,102330.34
2019-03-31T07:18:42.918Z,102341.98
2019-03-31T07:21:12.097Z,102338.66
2019-03-31T07:23:41.316Z,102336.77
2019-03-31T07:26:10.501Z,102343.27
2019-03-31T07:28:39.682Z,102342.47
2019-03-31T07:31:08.875Z,102343.13
2019-03-31T07:33:38.061Z,102349.83
2019-03-31T07:36:07.253Z,102356.80
2019-03-31T07:38:39.132Z,102352.27
2019-03-31T07:41:12.808Z,102360.20
2019-03-31T07:43:38.202Z,102355.25
2019-03-31T07:46:07.387Z,102365.63
2019-03-31T07:48:36.581Z,102361.63
2019-03-31T07:51:05.771Z,102367.12
2019-03-31T07:53:34.942Z,102363.13
2019-03-31T07:56:04.126Z,102371.16
2019-03-31T07:58:33.302Z,102371.64
2019-03-31T08:01:02.503Z,102375.77
2019-03-31T08:03:31.674Z,102371.18
2019-03-31T08:06:00.856Z,102378.28
2019-03-31T08:08:30.139Z,102380.52
2019-03-31T08:10:59.322Z,102377.55
2019-03-31T08:13:28.447Z,102384.09
2019-03-31T08:15:57.621Z,102374.27
2019-03-31T08:18:26.800Z,102384.98
2019-03-31T08:20:56.011Z,102379.92
2019-03-31T08:23:25.203Z,102404.14
2019-03-31T08:25:54.401Z,102392.00
2019-03-31T08:28:25.030Z,102398.73
2019-03-31T08:30:54.395Z,102406.35
2019-03-31T08:33:23.580Z,102401.39
2019-03-31T08:35:52.757Z,102401.83
2019-03-31T08:38:24.392Z,102401.41
2019-03-31T08:40:52.825Z,102406.64
2019-03-31T08:43:22.014Z,102405.68
2019-03-31T08:45:51.194Z,102407.89
2019-03-31T08:48:20.413Z,102416.81
2019-03-31T08:50:49.577Z,102417.88
2019-03-31T08:53:18.767Z,102413.73
2019-03-31T08:55:48.005Z,102417.38
2019-03-31T08:58:17.180Z,102431.80
2019-03-31T09:00:48.036Z,102431.42
2019-03-31T09:03:17.239Z,102432.42
2019-03-31T09:06:00.641Z,102438.16
2019-03-31T09:08:17.299Z,102441.62
2019-03-31T09:10:46.478Z,102445.81
2019-03-31T09:13:15.664Z,102447.67
2019-03-31T09:15:44.822Z,102456.73
2019-03-31T09:18:14.007Z,102449.05
2019-03-31T09:20:43.169Z,102450.70
2019-03-31T09:23:12.414Z,102447.08
2019-03-31T09:25:41.603Z,102445.17
2019-03-31T09:28:10.799Z,102454.35
2019-03-31T09:30:39.982Z,102451.39
2019-03-31T09:33:09.177Z,102455.62
2019-03-31T09:35:38.351Z,102450.42
2019-03-31T09:38:07.533Z,102444.63
2019-03-31T09:40:36.705Z,102443.34
2019-03-31T09:43:05.898Z,102454.34
2019-03-31T09:45:35.122Z,102441.17
2019-03-31T09:48:04.425Z,102441.13
2019-03-31T09:50:33.610Z,102435.67
2019-03-31T09:53:02.793Z,102448.73
2019-03-31T09:55:31.966Z,102447.80
2019-03-31T09:58:01.175Z,102442.22
2019-03-31T10:00:40.169Z,102442.22
2019-03-31T10:03:09.441Z,102441.19
2019-03-31T10:05:38.661Z,102438.31
2019-03-31T10:08:07.963Z,102444.34
2019-03-31T10:10:37.207Z,102423.22
2019-03-31T10:13:06.409Z,102439.19
2019-03-31T10:15:35.624Z,102447.83
2019-03-31T10:18:04.889Z,102452.22
2019-03-31T10:20:34.195Z,102445.55
2019-03-31T10:23:03.458Z,102459.10
2019-03-31T10:25:32.717Z,102443.63
2019-03-31T10:28:01.899Z,102451.50
2019-03-31T10:30:33.665Z,102451.50
2019-03-31T10:33:02.930Z,102447.27
2019-03-31T10:35:32.116Z,102456.98
2019-03-31T10:38:01.469Z,102450.69
2019-03-31T10:40:30.649Z,102444.42
2019-03-31T10:42:59.897Z,102451.23
2019-03-31T10:45:29.173Z,102451.23
2019-03-31T10:47:58.362Z,102451.50
2019-03-31T10:50:27.623Z,102451.50
2019-03-31T10:52:56.807Z,102450.66
2019-03-31T10:55:26.009Z,102445.27
2019-03-31T10:57:55.328Z,102444.47
2019-03-31T11:00:30.809Z,102448.72
2019-03-31T11:03:03.265Z,102451.84
2019-03-31T11:05:32.486Z,102450.09
2019-03-31T11:08:01.686Z,102451.33
2019-03-31T11:10:30.987Z,102451.33
2019-03-31T11:13:00.173Z,102444.98
2019-03-31T11:15:29.422Z,102443.03
2019-03-31T11:17:58.617Z,102441.98
2019-03-31T11:20:27.852Z,102440.23
2019-03-31T11:23:01.380Z,102428.09
2019-03-31T11:25:30.559Z,102428.09
2019-03-31T11:27:59.744Z,102440.23
2019-03-31T11:30:28.924Z,102440.23
2019-03-31T11:32:58.102Z,102441.34
2019-03-31T11:35:27.309Z,102424.14
2019-03-31T11:37:56.519Z,102424.14
2019-03-31T11:40:25.708Z,102446.39
2019-03-31T11:42:54.897Z,102436.22
2019-03-31T11:45:24.189Z,102429.63
2019-03-31T11:47:53.375Z,102429.63
2019-03-31T11:50:22.673Z,102433.69
2019-03-31T11:52:51.865Z,102431.33
2019-03-31T11:55:21.094Z,102436.73
2019-03-31T11:57:50.270Z,102436.03
2019-03-31T12:00:21.205Z,102437.22
2019-03-31T12:02:50.381Z,102444.45
2019-03-31T12:05:19.568Z,102444.47
2019-03-31T12:07:48.813Z,102444.47
2019-03-31T12:10:19.765Z,102439.25
2019-03-31T12:12:48.931Z,102444.47
2019-03-31T12:15:18.130Z,102433.96
2019-03-31T12:17:47.316Z,102442.78
2019-03-31T12:20:16.784Z,102422.45
2019-03-31T12:22:45.934Z,102422.45
2019-03-31T12:25:15.271Z,102447.68
2019-03-31T12:27:44.472Z,102447.68
2019-03-31T12:30:17.245Z,102426.67
2019-03-31T12:32:46.439Z,102423.47
2019-03-31T12:35:34.981Z,102432.83
2019-03-31T12:38:04.283Z,102432.83
2019-03-31T12:40:35.983Z,102423.98
2019-03-31T12:43:05.544Z,102429.95
2019-03-31T12:45:34.833Z,102429.17
2019-03-31T12:48:04.126Z,102429.17
2019-03-31T12:50:33.321Z,102424.07
2019-03-31T12:53:02.582Z,102428.56
2019-03-31T12:55:31.803Z,102421.31
2019-03-31T12:58:01.021Z,102425.66
2019-03-31T13:00:30.269Z,102429.44
2019-03-31T13:03:01.146Z,102430.54
2019-03-31T13:05:30.302Z,102430.54
2019-03-31T13:07:59.491Z,102421.54
2019-03-31T13:10:28.680Z,102415.67
2019-03-31T13:12:57.870Z,102415.67
2019-03-31T13:15:27.092Z,102408.52
2019-03-31T13:17:56.270Z,102417.78
2019-03-31T13:20:25.466Z,102416.63
2019-03-31T13:22:55.286Z,102415.97
2019-03-31T13:25:26.005Z,102405.94
2019-03-31T13:27:55.185Z,102419.13
2019-03-31T13:30:24.382Z,102391.89
2019-03-31T13:32:53.664Z,102389.28
2019-03-31T13:35:22.918Z,102402.78
2019-03-31T13:37:52.131Z,102403.22
2019-03-31T13:40:21.443Z,102403.22
2019-03-31T13:42:50.732Z,102394.31
2019-03-31T13:45:19.902Z,102382.62
2019-03-31T13:47:49.144Z,102382.62
2019-03-31T13:50:18.651Z,102384.72
2019-03-31T13:52:47.848Z,102376.94
2019-03-31T13:55:17.114Z,102376.94
2019-03-31T13:57:47.736Z,102383.80
2019-03-31T14:00:25.403Z,102383.80
2019-03-31T14:02:51.165Z,102379.52
2019-03-31T14:05:20.342Z,102379.52
2019-03-31T14:07:49.580Z,102381.25
2019-03-31T14:10:18.734Z,102380.28
2019-03-31T14:12:47.911Z,102382.27
2019-03-31T14:15:19.315Z,102359.86
2019-03-31T14:17:47.984Z,102363.39
2019-03-31T14:20:17.244Z,102369.48
2019-03-31T14:22:46.414Z,102369.48
2019-03-31T14:25:16.036Z,102360.12
2019-03-31T14:27:45.298Z,102357.60
2019-03-31T14:30:14.544Z,102357.83
2019-03-31T14:32:43.912Z,102357.83
2019-03-31T14:35:13.171Z,102354.48
2019-03-31T14:37:42.432Z,102361.41
2019-03-31T14:40:11.799Z,102361.41
2019-03-31T14:42:40.999Z,102353.70
2019-03-31T14:45:13.223Z,102358.41
2019-03-31T14:47:42.403Z,102358.41
2019-03-31T14:50:14.628Z,102346.95
2019-03-31T14:52:43.801Z,102346.95
2019-03-31T14:55:13.064Z,102358.95
2019-03-31T14:57:42.260Z,102358.61
2019-03-31T15:00:15.087Z,102358.61
2019-03-31T15:02:42.664Z,102343.62
2019-03-31T15:05:11.830Z,102332.62
2019-03-31T15:07:41.015Z,102356.34
2019-03-31T15:10:10.280Z,102342.01
2019-03-31T15:12:39.463Z,102342.79
2019-03-31T15:15:08.717Z,102336.56
2019-03-31T15:17:37.895Z,102336.56
2019-03-31T15:20:07.354Z,102342.94
2019-03-31T15:22:36.586Z,102311.91
2019-03-31T15:25:06.716Z,102334.66
2019-03-31T15:27:35.914Z,102334.66
2019-03-31T15:30:08.362Z,102332.41
2019-03-31T15:32:37.573Z,102332.41
2019-03-31T15:35:07.850Z,102340.97
2019-03-31T15:37:37.048Z,102332.96
2019-03-31T15:40:07.926Z,102331.95
2019-03-31T15:42:37.118Z,102331.95
2019-03-31T15:45:06.726Z,102349.92
2019-03-31T15:47:35.931Z,102337.51
2019-03-31T15:50:06.356Z,102337.51
2019-03-31T15:52:35.524Z,102341.65
2019-03-31T15:55:06.632Z,102339.14
2019-03-31T15:57:35.888Z,102334.33
2019-03-31T16:00:07.407Z,102343.21
2019-03-31T16:02:36.593Z,102338.92
2019-03-31T16:05:08.306Z,102337.34
2019-03-31T16:07:37.551Z,102337.34
2019-03-31T16:10:08.878Z,102343.83
2019-03-31T16:12:38.086Z,102345.83
2019-03-31T16:15:07.979Z,102333.99
2019-03-31T16:17:37.176Z,102330.02
2019-03-31T16:20:06.813Z,102330.02
2019-03-31T16:22:35.978Z,102333.38
2019-03-31T16:25:11.161Z,102344.11
2019-03-31T16:27:40.335Z,102327.17
2019-03-31T16:30:09.684Z,102337.39
2019-03-31T16:32:38.884Z,102337.39
2019-03-31T16:35:08.152Z,102333.65
2019-03-31T16:37:37.334Z,102329.03
2019-03-31T16:40:07.385Z,102337.59
2019-03-31T16:42:36.582Z,102338.37
2019-03-31T16:45:07.712Z,102348.87
2019-03-31T16:47:37.172Z,102348.87
2019-03-31T16:50:07.200Z,102351.28
2019-03-31T16:52:36.409Z,102367.72
2019-03-31T16:55:06.363Z,102367.72
2019-03-31T16:57:35.598Z,102350.75
2019-03-31T17:00:06.608Z,102350.75
2019-03-31T17:02:35.805Z,102352.02
2019-03-31T17:05:21.091Z,102350.58
2019-03-31T17:07:38.300Z,102350.58
2019-03-31T17:10:09.453Z,102342.75
2019-03-31T17:12:38.627Z,102358.59
2019-03-31T17:15:08.698Z,102358.59
2019-03-31T17:17:37.879Z,102351.82
2019-03-31T17:20:08.115Z,102351.59
2019-03-31T17:22:37.305Z,102351.59
2019-03-31T17:25:06.812Z,102342.66
2019-03-31T17:27:36.004Z,102342.66
2019-03-31T17:30:06.333Z,102346.45
2019-03-31T17:32:35.503Z,102345.66
2019-03-31T17:35:05.047Z,102344.06
2019-03-31T17:37:34.251Z,102348.29
2019-03-31T17:40:06.403Z,102348.29
2019-03-31T17:42:35.954Z,102343.00
2019-03-31T17:45:08.406Z,102349.53
2019-03-31T17:47:37.770Z,102354.06
2019-03-31T17:50:07.222Z,102346.66
2019-03-31T17:52:36.419Z,102344.41
2019-03-31T17:55:06.215Z,102363.20
2019-03-31T17:57:35.396Z,102360.12
2019-03-31T18:00:08.328Z,102356.30
2019-03-31T18:02:37.500Z,102362.05
2019-03-31T18:05:08.253Z,102352.22
2019-03-31T18:07:37.431Z,102359.95
2019-03-31T18:10:20.138Z,102366.30
2019-03-31T18:12:38.728Z,102367.95
2019-03-31T18:15:07.971Z,102385.97
2019-03-31T18:17:37.162Z,102354.84
2019-03-31T18:20:06.870Z,102365.09
2019-03-31T18:22:36.050Z,102366.86
2019-03-31T18:25:07.471Z,102363.25
2019-03-31T18:27:36.658Z,102372.19
2019-03-31T18:30:06.790Z,102376.56
2019-03-31T18:32:35.994Z,102365.51
2019-03-31T18:35:06.974Z,102379.09
2019-03-31T18:37:36.154Z,102368.30
2019-03-31T18:40:07.251Z,102375.45
2019-03-31T18:42:36.511Z,102367.98
2019-03-31T18:45:07.136Z,102376.82
2019-03-31T18:47:36.268Z,102377.34
2019-03-31T18:50:06.795Z,102375.48
2019-03-31T18:52:36.074Z,102374.61
2019-03-31T18:55:07.861Z,102374.20
2019-03-31T18:57:38.695Z,102394.41
2019-03-31T19:00:27.374Z,102391.77
2019-03-31T19:02:58.187Z,102394.03
2019-03-31T19:05:31.959Z,102402.19
2019-03-31T19:08:14.788Z,102398.17
2019-03-31T19:11:00.596Z,102403.62
2019-03-31T19:13:37.289Z,102415.30
2019-03-31T19:16:16.825Z,102403.20
2019-03-31T19:18:50.575Z,102418.38
2019-03-31T19:21:21.761Z,102424.57
2019-03-31T19:23:55.408Z,102418.07
2019-03-31T19:26:48.663Z,102428.77
2019-03-31T19:29:31.418Z,102422.11
2019-03-31T19:32:02.252Z,102436.44
2019-03-31T19:34:47.888Z,102427.72
2019-03-31T19:37:21.726Z,102435.78
2019-03-31T19:39:55.356Z,102440.80
2019-03-31T19:42:38.155Z,102434.64
2019-03-31T19:45:20.999Z,102439.09
2019-03-31T19:48:08.182Z,102437.97
2019-03-31T19:50:39.069Z,102441.20
2019-03-31T19:53:15.981Z,102436.27
2019-03-31T19:56:07.692Z,102448.50
2019-03-31T19:58:35.299Z,102452.88
2019-03-31T20:01:11.639Z,102456.13
2019-03-31T20:03:42.493Z,102454.00
2019-03-31T20:06:15.960Z,102465.53
2019-03-31T20:08:55.739Z,102453.67
2019-03-31T20:11:26.578Z,102457.19
2019-03-31T20:14:06.313Z,102457.27
2019-03-31T20:16:49.313Z,102460.31
2019-03-31T20:19:22.677Z,102475.15
2019-03-31T20:22:02.426Z,102460.45
2019-03-31T20:24:33.236Z,102469.80
2019-03-31T20:27:06.786Z,102463.34
2019-03-31T20:29:37.602Z,102471.77
2019-03-31T20:32:08.435Z,102471.28
2019-03-31T20:34:42.219Z,102470.94
2019-03-31T20:37:25.197Z,102473.23
2019-03-31T20:40:01.589Z,102476.34
2019-03-31T20:42:38.292Z,102489.42
2019-03-31T20:45:08.326Z,102480.53
2019-03-31T20:47:37.535Z,102478.00
2019-03-31T20:50:07.290Z,102485.16
2019-03-31T20:52:36.468Z,102487.45
2019-03-31T20:55:16.065Z,102492.66
2019-03-31T20:57:37.180Z,102490.18
2019-03-31T21:00:08.102Z,102489.80
2019-03-31T21:02:37.324Z,102490.24
2019-03-31T21:05:06.632Z,102493.83
2019-03-31T21:07:35.816Z,102492.46
2019-03-31T21:10:06.485Z,102496.22
2019-03-31T21:12:35.659Z,102493.52
2019-03-31T21:15:06.777Z,102496.23
2019-03-31T21:17:35.986Z,102496.28
2019-03-31T21:20:06.349Z,102491.81
2019-03-31T21:22:35.510Z,102499.48
2019-03-31T21:25:06.156Z,102503.08
2019-03-31T21:27:35.335Z,102501.30
2019-03-31T21:30:06.461Z,102501.86
2019-03-31T21:32:35.652Z,102499.23
2019-03-31T21:35:06.489Z,102507.75
2019-03-31T21:37:35.750Z,102501.97
2019-03-31T21:40:07.008Z,102502.45
2019-03-31T21:42:36.234Z,102509.89
2019-03-31T21:45:06.789Z,102506.89
2019-03-31T21:47:35.968Z,102511.79
2019-03-31T21:50:06.787Z,102514.92
2019-03-31T21:52:36.039Z,102512.23
2019-03-31T21:55:06.137Z,102520.33
2019-03-31T21:57:35.337Z,102521.61
2019-03-31T22:00:12.162Z,102514.55
2019-03-31T22:02:41.468Z,102526.61
2019-03-31T22:05:10.909Z,102519.16
2019-03-31T22:07:40.069Z,102518.78
2019-03-31T22:10:09.774Z,102529.29
2019-03-31T22:12:38.947Z,102516.45
2019-03-31T22:15:08.454Z,102516.09
2019-03-31T22:17:37.632Z,102507.59
2019-03-31T22:20:08.052Z,102506.23
2019-03-31T22:22:37.219Z,102514.32
2019-03-31T22:25:07.190Z,102512.21
2019-03-31T22:27:36.578Z,102514.87
2019-03-31T22:30:07.354Z,102506.34
2019-03-31T22:32:36.560Z,102513.08
2019-03-31T22:35:06.210Z,102523.73
2019-03-31T22:37:35.388Z,102518.95
2019-03-31T22:40:06.627Z,102511.03
2019-03-31T22:42:35.815Z,102514.95
2019-03-31T22:45:06.635Z,102522.06
2019-03-31T22:47:35.838Z,102516.88
2019-03-31T22:50:06.157Z,102504.02
2019-03-31T22:52:35.341Z,102504.08
2019-03-31T22:55:06.294Z,102504.14
2019-03-31T22:57:35.480Z,102500.63
2019-03-31T23:00:05.816Z,102529.84
2019-03-31T23:02:35.001Z,102512.59
2019-03-31T23:05:04.817Z,102507.23
2019-03-31T23:07:34.015Z,102524.52
2019-03-31T23:10:03.261Z,102501.08
2019-03-31T23:12:32.476Z,102498.88
2019-03-31T23:15:01.697Z,102501.95
2019-03-31T23:17:30.902Z,102496.22
2019-03-31T23:20:00.115Z,102508.64
2019-03-31T23:22:29.284Z,102502.97
2019-03-31T23:24:58.476Z,102503.38
2019-03-31T23:27:27.650Z,102502.93
2019-03-31T23:29:56.834Z,102514.42
2019-03-31T23:32:26.033Z,102509.16
2019-03-31T23:34:55.229Z,102505.17
2019-03-31T23:37:24.422Z,102497.19
2019-03-31T23:39:53.623Z,102500.77
2019-03-31T23:42:22.867Z,102497.23
2019-03-31T23:44:52.084Z,102502.09
2019-03-31T23:47:21.163Z,102502.59
2019-03-31T23:49:50.585Z,102492.41
2019-03-31T23:52:19.765Z,102497.28
2019-03-31T23:54:48.973Z,102497.73
2019-03-31T23:57:18.182Z,102505.72
2019-03-31T23:59:47.361Z,102489.79
